createdAt,value
2022-08-17T00:02:26.467Z,8.98
2022-08-17T00:04:55.252Z,9.65
2022-08-17T00:07:22.499Z,11.05
2022-08-17T00:09:50.223Z,15.63
2022-08-17T00:12:40.538Z,8.93
2022-08-17T00:15:04.963Z,11.27
2022-08-17T00:17:32.657Z,10.88
2022-08-17T00:20:00.155Z,13.98
2022-08-17T00:22:34.933Z,12.75
2022-08-17T00:25:09.787Z,9.98
2022-08-17T00:27:36.857Z,11.57
2022-08-17T00:30:06.674Z,9.38
2022-08-17T00:33:12.481Z,11.05
2022-08-17T00:35:27.956Z,9.63
2022-08-17T00:37:55.663Z,11.65
2022-08-17T00:40:22.433Z,14.10
2022-08-17T00:42:53.195Z,9.80
2022-08-17T00:45:20.359Z,11.30
2022-08-17T00:47:47.428Z,15.30
2022-08-17T00:50:16.786Z,9.52
2022-08-17T00:52:55.150Z,10.05
2022-08-17T00:55:23.462Z,9.43
2022-08-17T00:57:55.246Z,13.68
2022-08-17T01:00:26.735Z,9.18
2022-08-17T01:02:58.050Z,8.73
2022-08-17T01:05:29.938Z,10.10
2022-08-17T01:07:57.205Z,9.90
2022-08-17T01:10:58.416Z,9.25
2022-08-17T01:13:23.321Z,11.55
2022-08-17T01:15:56.745Z,9.95
2022-08-17T01:18:25.014Z,10.65
2022-08-17T01:20:53.883Z,11.40
2022-08-17T01:23:23.269Z,11.95
2022-08-17T01:25:51.993Z,13.57
2022-08-17T01:28:52.490Z,9.25
2022-08-17T01:31:08.421Z,10.20
2022-08-17T01:33:35.493Z,12.20
2022-08-17T01:36:03.510Z,10.10
2022-08-17T01:38:31.755Z,10.80
2022-08-17T01:41:06.999Z,9.15
2022-08-17T01:43:45.457Z,12.13
2022-08-17T01:46:16.923Z,11.45
2022-08-17T01:48:47.210Z,12.15
2022-08-17T01:51:15.450Z,11.05
2022-08-17T01:53:45.459Z,9.20
2022-08-17T01:56:15.530Z,10.57
2022-08-17T01:58:42.921Z,9.77
2022-08-17T02:01:10.775Z,8.63
2022-08-17T02:03:38.111Z,9.55
2022-08-17T02:06:06.309Z,9.05
2022-08-17T02:09:02.245Z,10.55
2022-08-17T02:11:34.478Z,10.77
2022-08-17T02:14:03.106Z,13.10
2022-08-17T02:16:36.894Z,11.98
2022-08-17T02:19:10.264Z,10.50
2022-08-17T02:21:38.016Z,10.05
2022-08-17T02:24:06.744Z,9.15
2022-08-17T02:26:33.657Z,8.93
2022-08-17T02:29:00.506Z,9.82
2022-08-17T02:31:27.198Z,9.85
2022-08-17T02:34:03.363Z,10.63
2022-08-17T02:36:33.782Z,15.40
2022-08-17T02:39:06.490Z,9.93
2022-08-17T02:41:33.542Z,13.80
2022-08-17T02:44:01.035Z,10.32
2022-08-17T02:46:28.300Z,10.50
2022-08-17T02:48:55.035Z,9.63
2022-08-17T02:51:22.090Z,12.80
2022-08-17T02:53:48.926Z,9.98
2022-08-17T02:56:15.871Z,12.13
2022-08-17T02:58:42.538Z,11.75
2022-08-17T03:01:09.930Z,13.65
2022-08-17T03:03:37.254Z,10.88
2022-08-17T03:06:07.591Z,12.02
2022-08-17T03:08:34.639Z,9.25
2022-08-17T03:11:02.206Z,10.63
2022-08-17T03:13:30.759Z,9.00
2022-08-17T03:15:57.522Z,12.57
2022-08-17T03:18:26.398Z,11.65
2022-08-17T03:20:59.061Z,9.27
2022-08-17T03:23:27.298Z,12.00
2022-08-17T03:25:55.846Z,10.90
2022-08-17T03:28:24.292Z,10.80
2022-08-17T03:30:52.152Z,10.82
2022-08-17T03:33:21.448Z,10.15
2022-08-17T03:35:48.459Z,17.15
2022-08-17T03:38:17.022Z,11.18
2022-08-17T03:40:57.509Z,9.38
2022-08-17T03:43:32.470Z,8.52
2022-08-17T03:46:34.138Z,12.13
2022-08-17T03:49:26.111Z,9.88
2022-08-17T03:52:15.597Z,9.77
2022-08-17T03:55:04.361Z,10.50
2022-08-17T03:57:31.382Z,9.93
2022-08-17T04:00:04.797Z,11.80
2022-08-17T04:02:40.303Z,16.42
2022-08-17T04:05:07.417Z,9.73
2022-08-17T04:07:34.062Z,10.15
2022-08-17T04:10:00.767Z,8.75
2022-08-17T04:12:30.723Z,12.95
2022-08-17T04:14:57.746Z,10.80
2022-08-17T04:22:30.069Z,10.40
2022-08-17T04:25:14.997Z,11.30
2022-08-17T04:27:41.688Z,9.10
2022-08-17T04:30:09.097Z,8.98
2022-08-17T04:33:04.465Z,9.45
2022-08-17T04:35:41.685Z,12.18
2022-08-17T04:38:11.968Z,9.40
2022-08-17T04:40:57.559Z,8.60
2022-08-17T04:43:25.633Z,9.80
2022-08-17T04:45:58.234Z,11.70
2022-08-17T04:48:36.277Z,10.10
2022-08-17T04:51:09.856Z,10.73
2022-08-17T04:54:54.382Z,10.35
2022-08-17T04:57:21.044Z,10.38
2022-08-17T04:59:47.738Z,9.13
2022-08-17T05:02:14.839Z,12.07
2022-08-17T05:04:41.748Z,13.20
2022-08-17T05:07:08.519Z,9.30
2022-08-17T05:09:35.259Z,10.20
2022-08-17T05:12:02.380Z,13.43
2022-08-17T05:14:33.437Z,9.85
2022-08-17T05:21:30.824Z,12.32
2022-08-17T05:23:58.553Z,10.40
2022-08-17T05:26:29.404Z,9.40
2022-08-17T05:28:59.520Z,11.35
2022-08-17T05:31:27.035Z,9.60
2022-08-17T05:33:53.746Z,9.90
2022-08-17T05:36:42.633Z,12.15
2022-08-17T05:39:07.500Z,13.65
2022-08-17T05:41:34.221Z,12.65
2022-08-17T05:44:00.874Z,12.27
2022-08-17T05:46:36.396Z,12.07
2022-08-17T05:49:07.781Z,12.73
2022-08-17T05:51:48.800Z,14.80
2022-08-17T05:54:54.412Z,13.07
2022-08-17T05:57:53.561Z,10.20
2022-08-17T06:00:32.124Z,9.77
2022-08-17T06:03:27.493Z,14.10
2022-08-17T06:06:25.361Z,13.20
2022-08-17T06:09:00.807Z,15.20
2022-08-17T06:11:39.283Z,10.48
2022-08-17T06:18:31.807Z,11.10
2022-08-17T06:21:01.007Z,13.63
2022-08-17T06:23:35.184Z,14.43
2022-08-17T06:26:05.833Z,13.73
2022-08-17T06:28:47.403Z,10.32
2022-08-17T06:31:22.193Z,14.45
2022-08-17T06:33:49.352Z,15.30
2022-08-17T06:36:49.697Z,12.55
2022-08-17T06:39:44.521Z,12.50
2022-08-17T06:43:02.817Z,13.10
2022-08-17T06:45:27.721Z,12.18
2022-08-17T06:48:15.581Z,14.77
2022-08-17T06:50:45.047Z,17.92
2022-08-17T06:53:22.540Z,17.80
2022-08-17T06:55:58.009Z,18.10
2022-08-17T06:58:29.683Z,12.73
2022-08-17T07:01:01.001Z,13.02
2022-08-17T07:03:44.472Z,10.60
2022-08-17T07:06:13.945Z,16.05
2022-08-17T07:08:52.930Z,13.52
2022-08-17T07:11:27.180Z,13.23
2022-08-17T07:13:57.925Z,14.13
2022-08-17T07:16:28.795Z,13.15
2022-08-17T07:18:57.219Z,15.68
2022-08-17T07:21:50.286Z,10.10
2022-08-17T07:28:23.157Z,12.73
2022-08-17T07:30:53.794Z,13.15
2022-08-17T07:33:27.665Z,10.98
2022-08-17T07:35:57.276Z,13.02
2022-08-17T07:38:28.907Z,17.02
2022-08-17T07:41:02.114Z,11.93
2022-08-17T07:43:37.929Z,13.20
2022-08-17T07:46:34.016Z,12.30
2022-08-17T07:49:00.704Z,10.85
2022-08-17T07:51:29.100Z,16.23
2022-08-17T07:54:13.530Z,13.40
2022-08-17T07:57:03.810Z,15.13
2022-08-17T07:59:34.301Z,10.35
2022-08-17T08:02:06.139Z,16.23
2022-08-17T08:07:48.062Z,10.30
2022-08-17T08:10:32.320Z,12.65
2022-08-17T08:13:15.336Z,11.88
2022-08-17T08:16:16.806Z,14.25
2022-08-17T08:18:55.327Z,16.48
2022-08-17T08:21:32.140Z,12.38
2022-08-17T08:24:33.434Z,10.73
2022-08-17T08:31:52.194Z,14.05
2022-08-17T08:34:44.436Z,8.82
2022-08-17T08:37:49.907Z,11.90
2022-08-17T08:40:35.531Z,14.85
2022-08-17T08:43:22.010Z,14.52
2022-08-17T08:46:21.859Z,12.27
2022-08-17T08:49:12.273Z,9.43
2022-08-17T08:51:55.726Z,9.40
2022-08-17T08:58:59.524Z,11.57
2022-08-17T09:01:47.792Z,16.92
2022-08-17T09:04:24.782Z,11.05
2022-08-17T09:07:29.558Z,14.30
2022-08-17T09:10:24.592Z,14.48
2022-08-17T09:13:09.601Z,14.95
2022-08-17T09:16:00.178Z,12.48
2022-08-17T09:18:59.260Z,16.00
2022-08-17T09:21:48.551Z,14.40
2022-08-17T09:24:25.643Z,22.80
2022-08-17T09:27:30.630Z,19.17
2022-08-17T09:30:04.805Z,19.42
2022-08-17T09:32:38.110Z,13.30
2022-08-17T09:35:14.388Z,12.15
2022-08-17T09:37:47.023Z,14.50
2022-08-17T09:42:49.258Z,14.75
2022-08-17T09:45:42.530Z,15.15
2022-08-17T09:48:37.678Z,18.83
2022-08-17T09:51:22.455Z,18.33
2022-08-17T09:53:50.293Z,17.95
2022-08-17T09:56:43.768Z,21.77
2022-08-17T09:59:38.723Z,15.23
2022-08-17T10:02:33.327Z,16.83
2022-08-17T10:05:04.739Z,17.80
2022-08-17T10:07:44.472Z,18.95
2022-08-17T10:10:56.266Z,17.67
2022-08-17T10:13:36.157Z,13.45
2022-08-17T10:16:30.944Z,17.38
2022-08-17T10:19:27.793Z,12.40
2022-08-17T10:22:34.883Z,15.13
2022-08-17T10:25:54.531Z,17.55
2022-08-17T10:28:30.023Z,25.63
2022-08-17T10:34:18.890Z,19.08
2022-08-17T10:36:56.510Z,14.55
2022-08-17T10:39:34.242Z,17.15
2022-08-17T10:42:33.221Z,13.80
2022-08-17T10:45:07.147Z,13.25
2022-08-17T10:48:04.310Z,18.95
2022-08-17T10:50:57.654Z,11.80
2022-08-17T10:53:32.552Z,13.77
2022-08-17T10:56:13.201Z,15.95
2022-08-17T10:58:49.603Z,19.27
2022-08-17T11:01:17.277Z,13.95
2022-08-17T11:03:53.407Z,13.45
2022-08-17T11:06:32.754Z,18.30
2022-08-17T11:09:09.509Z,18.17
2022-08-17T11:12:01.316Z,14.25
2022-08-17T11:15:13.331Z,12.07
2022-08-17T11:18:01.896Z,13.75
2022-08-17T11:20:39.343Z,17.50
2022-08-17T11:23:29.261Z,15.60
2022-08-17T11:26:01.802Z,14.02
2022-08-17T11:28:35.768Z,19.60
2022-08-17T11:31:09.219Z,15.90
2022-08-17T11:33:36.638Z,13.52
2022-08-17T11:36:31.631Z,14.63
2022-08-17T11:39:20.060Z,16.40
2022-08-17T11:41:57.511Z,19.90
2022-08-17T11:44:51.410Z,11.18
2022-08-17T11:47:53.014Z,17.67
2022-08-17T11:51:09.175Z,19.55
2022-08-17T11:53:38.583Z,19.95
2022-08-17T11:56:10.884Z,14.90
2022-08-17T11:59:19.677Z,15.70
2022-08-17T12:01:57.021Z,13.10
2022-08-17T12:04:32.644Z,22.55
2022-08-17T12:07:11.331Z,22.98
2022-08-17T12:09:43.010Z,23.20
2022-08-17T12:12:14.445Z,14.63
2022-08-17T12:15:11.132Z,17.92
2022-08-17T12:17:40.637Z,21.70
2022-08-17T12:20:15.535Z,20.08
2022-08-17T12:23:04.401Z,19.17
2022-08-17T12:26:22.595Z,17.98
2022-08-17T12:28:57.361Z,22.52
2022-08-17T12:31:31.413Z,24.75
2022-08-17T12:34:00.351Z,20.53
2022-08-17T12:36:28.629Z,20.98
2022-08-17T12:39:13.111Z,24.58
2022-08-17T12:41:47.369Z,25.10
2022-08-17T12:44:21.608Z,25.98
2022-08-17T12:47:01.686Z,15.90
2022-08-17T12:49:40.799Z,18.42
2022-08-17T12:52:17.175Z,23.35
2022-08-17T12:54:48.397Z,17.33
2022-08-17T12:57:24.893Z,19.85
2022-08-17T12:59:54.919Z,17.02
2022-08-17T13:02:29.145Z,19.33
2022-08-17T13:04:58.951Z,19.15
2022-08-17T13:07:42.439Z,17.95
2022-08-17T13:10:16.774Z,15.68
2022-08-17T13:12:43.602Z,16.90
2022-08-17T13:15:20.753Z,15.80
2022-08-17T13:18:06.874Z,18.98
2022-08-17T13:20:34.750Z,19.95
2022-08-17T13:23:11.425Z,19.77
2022-08-17T13:25:39.254Z,20.50
2022-08-17T13:28:05.959Z,16.15
2022-08-17T13:30:33.507Z,16.08
2022-08-17T13:33:04.782Z,16.42
2022-08-17T13:35:49.315Z,19.42
2022-08-17T13:38:47.211Z,19.92
2022-08-17T13:41:36.209Z,17.60
2022-08-17T13:44:29.675Z,18.77
2022-08-17T13:46:57.487Z,17.75
2022-08-17T13:49:41.898Z,17.73
2022-08-17T13:52:52.201Z,14.10
2022-08-17T13:58:24.547Z,11.90
2022-08-17T14:00:51.777Z,14.40
2022-08-17T14:03:19.758Z,14.70
2022-08-17T14:05:48.119Z,15.98
2022-08-17T14:08:16.378Z,13.57
2022-08-17T14:10:45.170Z,14.35
2022-08-17T14:13:15.246Z,12.32
2022-08-17T14:15:54.912Z,13.48
2022-08-17T14:18:42.007Z,12.07
2022-08-17T14:21:10.413Z,17.90
2022-08-17T14:23:37.262Z,15.73
2022-08-17T14:26:04.437Z,15.05
2022-08-17T14:28:31.092Z,14.57
2022-08-17T14:31:00.633Z,19.65
2022-08-17T14:33:28.446Z,23.38
2022-08-17T14:35:57.384Z,16.27
2022-08-17T14:38:24.197Z,13.18
2022-08-17T14:40:50.922Z,16.45
2022-08-17T14:43:17.866Z,13.73
2022-08-17T14:45:44.587Z,16.60
2022-08-17T14:48:12.446Z,13.88
2022-08-17T14:50:41.888Z,18.17
2022-08-17T14:53:11.796Z,18.35
2022-08-17T14:55:40.671Z,10.52
2022-08-17T14:58:08.791Z,12.38
2022-08-17T15:00:38.493Z,12.93
2022-08-17T15:03:05.664Z,11.30
2022-08-17T15:05:58.856Z,13.15
2022-08-17T15:08:25.650Z,12.60
2022-08-17T15:10:54.344Z,12.65
2022-08-17T15:13:24.048Z,16.58
2022-08-17T15:15:51.330Z,13.20
2022-08-17T15:18:23.182Z,12.35
2022-08-17T15:20:50.170Z,12.98
2022-08-17T15:23:19.620Z,11.10
2022-08-17T15:25:47.944Z,12.40
2022-08-17T15:28:15.282Z,14.10
2022-08-17T15:30:45.292Z,12.55
2022-08-17T15:33:17.399Z,12.55
2022-08-17T15:35:44.881Z,14.07
2022-08-17T15:38:12.933Z,11.70
2022-08-17T15:41:58.114Z,12.43
2022-08-17T15:44:32.375Z,11.50
2022-08-17T15:47:02.173Z,10.85
2022-08-17T15:49:28.905Z,11.20
2022-08-17T15:51:56.150Z,12.73
2022-08-17T15:54:23.478Z,16.17
2022-08-17T15:56:53.884Z,13.18
2022-08-17T15:59:20.578Z,11.57
2022-08-17T16:03:13.484Z,11.80
2022-08-17T16:04:40.216Z,12.40
2022-08-17T16:07:10.727Z,10.77
2022-08-17T16:09:38.372Z,11.70
2022-08-17T16:12:13.375Z,11.50
2022-08-17T16:14:47.977Z,51.40
2022-08-17T16:17:50.195Z,43.20
2022-08-17T16:20:04.724Z,21.27
2022-08-17T16:22:36.048Z,25.58
2022-08-17T16:25:08.446Z,16.83
2022-08-17T16:27:36.163Z,15.65
2022-08-17T16:30:05.217Z,13.15
2022-08-17T16:32:32.979Z,14.70
2022-08-17T16:35:49.441Z,15.25
2022-08-17T16:38:22.153Z,11.65
2022-08-17T16:41:45.475Z,11.30
2022-08-17T16:44:17.244Z,12.98
2022-08-17T16:46:45.722Z,10.07
2022-08-17T16:49:24.467Z,11.75
2022-08-17T17:00:50.620Z,11.00
2022-08-17T17:03:20.894Z,13.80
2022-08-17T17:06:16.071Z,13.45
2022-08-17T17:08:53.792Z,10.18
2022-08-17T17:11:38.277Z,9.38
2022-08-17T17:14:11.992Z,11.98
2022-08-17T17:16:52.905Z,12.35
2022-08-17T17:19:51.491Z,12.05
2022-08-17T17:22:42.283Z,12.48
2022-08-17T17:25:19.813Z,13.70
2022-08-17T17:28:28.264Z,14.07
2022-08-17T17:31:16.887Z,13.65
2022-08-17T17:33:53.731Z,13.02
2022-08-17T17:36:38.193Z,10.80
2022-08-17T17:39:10.160Z,13.77
2022-08-17T17:41:58.551Z,11.90
2022-08-17T17:44:30.506Z,13.10
2022-08-17T17:46:59.938Z,10.98
2022-08-17T17:49:30.442Z,11.95
2022-08-17T17:52:14.221Z,15.55
2022-08-17T17:55:02.185Z,14.23
2022-08-17T17:58:04.154Z,11.68
2022-08-17T18:00:39.268Z,14.30
2022-08-17T18:03:35.305Z,14.90
2022-08-17T18:06:05.179Z,14.82
2022-08-17T18:08:58.022Z,13.52
2022-08-17T18:15:50.980Z,12.02
2022-08-17T18:19:12.980Z,11.10
2022-08-17T18:21:45.753Z,13.55
2022-08-17T18:24:13.480Z,13.38
2022-08-17T18:26:55.264Z,13.70
2022-08-17T18:34:43.804Z,17.02
2022-08-17T18:37:10.653Z,14.18
2022-08-17T18:39:38.240Z,12.85
2022-08-17T18:42:24.081Z,14.52
2022-08-17T18:44:54.935Z,14.25
2022-08-17T18:47:27.629Z,13.32
2022-08-17T18:50:26.236Z,14.25
2022-08-17T18:52:55.117Z,14.02
2022-08-17T18:55:24.692Z,15.65
2022-08-17T18:57:53.482Z,13.30
2022-08-17T19:00:41.622Z,11.00
2022-08-17T19:03:20.306Z,14.23
2022-08-17T19:05:51.310Z,14.57
2022-08-17T19:08:33.960Z,10.77
2022-08-17T19:11:23.758Z,11.13
2022-08-17T19:14:00.980Z,13.55
2022-08-17T19:16:32.384Z,14.80
2022-08-17T19:19:04.995Z,13.88
2022-08-17T19:24:19.306Z,12.25
2022-08-17T19:26:55.059Z,12.55
2022-08-17T19:29:34.845Z,13.18
2022-08-17T19:32:04.483Z,15.25
2022-08-17T19:34:34.579Z,13.43
2022-08-17T19:37:32.545Z,12.35
2022-08-17T19:40:29.294Z,13.88
2022-08-17T19:43:54.670Z,15.50
2022-08-17T19:46:36.050Z,14.07
2022-08-17T19:49:07.654Z,12.27
2022-08-17T19:51:58.264Z,14.35
2022-08-17T19:54:31.547Z,16.55
2022-08-17T19:57:17.994Z,13.63
2022-08-17T20:02:41.786Z,14.00
2022-08-17T20:08:12.304Z,14.48
2022-08-17T20:10:41.574Z,13.88
2022-08-17T20:13:15.161Z,11.85
2022-08-17T20:15:44.182Z,12.75
2022-08-17T20:18:26.548Z,14.55
2022-08-17T20:21:20.463Z,15.98
2022-08-17T20:23:56.167Z,16.48
2022-08-17T20:26:42.778Z,16.95
2022-08-17T20:29:40.247Z,13.30
2022-08-17T20:32:16.918Z,18.15
2022-08-17T20:34:46.071Z,19.75
2022-08-17T20:37:12.716Z,23.90
2022-08-17T20:39:41.630Z,12.93
2022-08-17T20:42:30.255Z,13.57
2022-08-17T20:45:01.982Z,15.55
2022-08-17T20:48:01.189Z,15.75
2022-08-17T20:50:37.827Z,16.25
2022-08-17T20:53:08.174Z,15.25
2022-08-17T20:55:51.156Z,17.60
2022-08-17T20:58:30.869Z,15.75
2022-08-17T21:00:58.806Z,14.32
2022-08-17T21:03:28.614Z,17.50
2022-08-17T21:06:17.922Z,13.88
2022-08-17T21:09:03.468Z,12.90
2022-08-17T21:11:57.061Z,15.52
2022-08-17T21:14:37.269Z,16.75
2022-08-17T21:17:14.910Z,14.13
2022-08-17T21:20:10.973Z,16.48
2022-08-17T21:23:27.251Z,20.02
2022-08-17T21:26:30.766Z,22.48
2022-08-17T21:29:31.211Z,17.50
2022-08-17T21:31:59.406Z,14.50
2022-08-17T21:34:32.874Z,20.75
2022-08-17T21:37:19.742Z,16.52
2022-08-17T21:40:12.473Z,15.77
2022-08-17T21:42:48.275Z,18.90
2022-08-17T21:45:23.657Z,16.52
2022-08-17T21:49:13.432Z,15.45
2022-08-17T21:51:59.179Z,16.70
2022-08-17T21:54:38.774Z,16.48
2022-08-17T21:57:07.965Z,14.07
2022-08-17T21:59:38.161Z,19.85
2022-08-17T22:02:09.863Z,15.10
2022-08-17T22:04:41.569Z,16.13
2022-08-17T22:07:11.339Z,15.65
2022-08-17T22:09:48.798Z,16.05
2022-08-17T22:12:17.690Z,18.35
2022-08-17T22:14:56.659Z,17.52
2022-08-17T22:17:35.353Z,15.30
2022-08-17T22:20:17.275Z,14.65
2022-08-17T22:23:08.437Z,16.83
2022-08-17T22:25:40.934Z,19.05
2022-08-17T22:28:10.136Z,15.65
2022-08-17T22:31:02.065Z,19.35
2022-08-17T22:33:39.948Z,15.70
2022-08-17T22:36:26.826Z,17.00
2022-08-17T22:38:58.430Z,16.25
2022-08-17T22:41:40.426Z,15.73
2022-08-17T22:44:31.596Z,16.37
2022-08-17T22:47:19.546Z,20.48
2022-08-17T22:49:58.742Z,16.75
2022-08-17T22:53:00.655Z,15.85
2022-08-17T22:55:48.119Z,15.10
2022-08-17T22:58:41.858Z,14.05
2022-08-17T23:01:27.634Z,15.60
2022-08-17T23:03:57.290Z,16.33
2022-08-17T23:06:24.276Z,15.35
2022-08-17T23:08:54.956Z,12.40
2022-08-17T23:11:36.944Z,13.05
2022-08-17T23:14:15.661Z,14.88
2022-08-17T23:16:42.564Z,16.88
2022-08-17T23:19:10.738Z,14.88
2022-08-17T23:21:37.833Z,16.02
2022-08-17T23:24:05.840Z,11.98
2022-08-17T23:26:37.841Z,13.68
2022-08-17T23:29:08.853Z,16.77
2022-08-17T23:31:36.852Z,17.17
2022-08-17T23:34:04.818Z,14.02
2022-08-17T23:36:34.707Z,16.17
2022-08-17T23:39:01.441Z,12.88
2022-08-17T23:41:31.860Z,16.73
2022-08-17T23:43:59.604Z,13.18
2022-08-17T23:46:26.435Z,18.08
2022-08-17T23:48:53.943Z,15.00
2022-08-17T23:51:23.970Z,15.68
2022-08-17T23:53:54.321Z,19.27
2022-08-17T23:56:27.400Z,14.60
2022-08-17T23:58:55.276Z,15.38
